Time;durP1;ratioP1;P1;durP2;ratioP2;P2;SDS_P1;SDS_P2;PMS_P1;PMS_P2;Temp;Humidity;BMP_temperature;BMP_pressure;BME280_temperature;BME280_humidity;BME280_pressure;Samples;Min_cycle;Max_cycle;Signal;HPM_P1;HPM_P2
2022/01/26 00:06:26;;;;;;;21.27;10.82;;;;;;;-6.23;50.45;96061.59;5047781;28;20632;-60
2022/01/26 00:08:52;;;;;;;22.45;11.18;;;;;;;-6.08;49.84;96074.44;5047015;28;20021;-60
2022/01/26 00:11:17;;;;;;;21.92;11.38;;;;;;;-6.22;50.50;96048.22;5046941;28;20093;-60
2022/01/26 00:13:43;;;;;;;21.60;11.55;;;;;;;-6.08;50.80;96081.13;5046789;28;20055;-59
2022/01/26 00:16:16;;;;;;;17.77;10.68;;;;;;;-6.15;50.76;96076.00;5047482;28;20028;-60
2022/01/26 00:18:41;;;;;;;27.55;13.95;;;;;;;-6.19;51.28;96066.69;5047355;28;20166;-61
2022/01/26 00:21:19;;;;;;;20.50;11.30;;;;;;;-6.28;51.49;96058.97;5047357;28;20513;-62
2022/01/26 00:26:32;;;;;;;56.70;30.35;;;;;;;-6.91;53.29;96066.09;5046682;28;20397;-60
2022/01/26 00:39:35;;;;;;;68.65;33.83;;;;;;;-7.80;56.20;96077.44;5050431;28;20039;-59
2022/01/26 00:42:01;;;;;;;70.35;35.20;;;;;;;-7.81;56.60;96073.22;5050673;28;20778;-58
2022/01/26 00:44:34;;;;;;;69.60;34.58;;;;;;;-8.23;57.00;96050.44;5049938;28;20095;-60
2022/01/26 00:47:00;;;;;;;65.70;35.67;;;;;;;-8.23;57.97;96081.34;5050423;28;20527;-60
2022/01/26 00:49:26;;;;;;;80.90;37.65;;;;;;;-8.52;58.13;96040.56;5049682;28;20029;-60
2022/01/26 00:51:53;;;;;;;71.00;35.53;;;;;;;-8.36;58.04;96077.66;5049997;28;20033;-59
2022/01/26 00:54:19;;;;;;;71.57;35.67;;;;;;;-8.58;58.84;96061.22;5050542;28;20628;-59
2022/01/26 00:56:44;;;;;;;62.42;32.03;;;;;;;-8.56;58.49;96074.66;5050181;28;20027;-61
2022/01/26 00:59:11;;;;;;;61.22;30.15;;;;;;;-8.56;58.97;96073.78;5049803;28;20033;-60
2022/01/26 01:01:36;;;;;;;69.40;31.08;;;;;;;-8.63;59.29;96069.44;5049314;28;20449;-60
2022/01/26 01:04:02;;;;;;;48.47;27.17;;;;;;;-8.52;59.26;96065.56;5050028;28;20036;-59
2022/01/26 01:06:33;;;;;;;52.15;26.98;;;;;;;-8.52;58.31;96076.41;5050526;28;20032;-60
2022/01/26 01:09:00;;;;;;;53.40;26.77;;;;;;;-8.76;58.57;96033.22;5050355;28;20021;-60
2022/01/26 01:11:26;;;;;;;54.85;27.05;;;;;;;-9.16;58.84;95974.63;5050062;28;20534;-60
2022/01/26 01:13:52;;;;;;;52.65;23.50;;;;;;;-8.61;58.45;96071.16;5049482;28;20031;-59
2022/01/26 01:16:21;;;;;;;46.22;23.90;;;;;;;-8.75;58.85;96039.94;5050024;28;20052;-60
2022/01/26 01:31:42;;;;;;;37.63;18.70;;;;;;;-8.58;58.81;96068.72;5049667;28;20040;-60
2022/01/26 01:34:08;;;;;;;37.83;20.17;;;;;;;-8.85;59.45;96020.44;5049223;28;20039;-61
2022/01/26 01:36:36;;;;;;;36.30;20.00;;;;;;;-8.61;58.93;96052.81;5049346;28;20018;-59
2022/01/26 01:39:03;;;;;;;45.75;20.55;;;;;;;-8.56;59.23;96053.78;5049205;28;20021;-60
2022/01/26 01:41:29;;;;;;;35.88;19.65;;;;;;;-8.74;58.97;96011.59;5048746;28;20033;-60
2022/01/26 01:43:54;;;;;;;36.47;20.02;;;;;;;-8.46;58.83;96048.22;5049346;28;20033;-59
2022/01/26 01:46:20;;;;;;;36.45;19.48;;;;;;;-8.39;59.28;96041.72;5049216;28;20021;-63
2022/01/26 01:48:45;;;;;;;34.80;20.25;;;;;;;-8.18;58.89;96047.28;5049030;28;20037;-60
2022/01/26 01:51:14;;;;;;;34.05;20.05;;;;;;;-8.07;58.74;96042.50;5049199;28;20036;-61
2022/01/26 01:53:42;;;;;;;38.05;20.70;;;;;;;-7.91;57.82;96041.25;5049019;28;20025;-61
2022/01/26 01:56:14;;;;;;;34.30;19.25;;;;;;;-7.81;57.43;96032.31;5048890;28;20468;-62
2022/01/26 01:58:41;;;;;;;35.67;19.92;;;;;;;-7.80;57.32;96031.50;5048836;28;20412;-61
2022/01/26 02:01:08;;;;;;;32.88;18.60;;;;;;;-7.86;56.83;96022.19;5048778;28;20069;-61
2022/01/26 02:03:33;;;;;;;36.05;21.52;;;;;;;-7.99;58.38;95990.16;5048938;28;20029;-61
2022/01/26 02:05:59;;;;;;;40.25;21.80;;;;;;;-7.64;56.90;96023.56;5049439;28;20032;-60
2022/01/26 02:08:24;;;;;;;38.45;20.15;;;;;;;-7.53;56.97;96022.94;5049129;28;20033;-61
2022/01/26 02:10:50;;;;;;;32.38;18.90;;;;;;;-7.68;57.35;95999.22;5049141;28;20075;-61
2022/01/26 02:13:27;;;;;;;36.30;20.80;;;;;;;-7.44;56.94;96013.16;5048511;28;20140;-60
2022/01/26 02:16:14;;;;;;;32.00;20.17;;;;;;;-7.51;56.62;95996.25;5048945;28;20035;-60
2022/01/26 02:57:49;;;;;;;35.17;20.20;;;;;;;-6.94;56.83;96003.34;4947055;28;20082;-59
2022/01/26 03:00:26;;;;;;;41.88;21.42;;;;;;;-7.06;56.86;95998.94;4946999;29;20118;-60
2022/01/26 03:05:20;;;;;;;35.70;20.45;;;;;;;-7.33;56.76;95998.34;4948172;29;20043;-60
2022/01/26 03:07:55;;;;;;;40.65;22.02;;;;;;;-7.41;57.46;95985.63;4947437;28;20556;-60
2022/01/26 03:10:33;;;;;;;41.28;21.90;;;;;;;-7.52;58.14;95977.06;4947458;29;20046;-58
2022/01/26 03:13:05;;;;;;;42.83;22.33;;;;;;;-7.34;57.43;96001.66;4947045;29;20050;-58
2022/01/26 03:15:37;;;;;;;42.55;23.55;;;;;;;-7.50;57.50;95990.44;4946903;29;20061;-59
2022/01/26 03:20:39;;;;;;;45.33;24.88;;;;;;;-7.52;56.90;95969.53;4947147;29;20118;-59
2022/01/26 03:36:00;;;;;;;37.42;22.45;;;;;;;-6.68;57.26;96003.84;5047426;28;20025;-59
2022/01/26 03:38:38;;;;;;;35.05;20.30;;;;;;;-6.52;55.71;95994.97;5047288;28;21166;-59
2022/01/26 03:43:47;;;;;;;35.72;20.05;;;;;;;-6.60;56.03;95988.97;5047729;28;20040;-60
2022/01/26 03:46:13;;;;;;;37.45;19.15;;;;;;;-6.51;56.60;95964.06;5047464;28;20028;-60
2022/01/26 03:48:39;;;;;;;38.47;19.83;;;;;;;-6.54;55.58;95956.47;5047267;28;20149;-61
2022/01/26 03:51:04;;;;;;;38.05;20.27;;;;;;;-6.31;55.87;95981.13;5048043;28;20064;-59
2022/01/26 03:53:30;;;;;;;39.38;21.23;;;;;;;-6.21;55.65;95980.47;5047711;28;20052;-61
2022/01/26 03:55:56;;;;;;;33.45;18.80;;;;;;;-6.06;55.68;95949.75;5048027;28;20032;-60
2022/01/26 03:58:22;;;;;;;33.58;18.35;;;;;;;-5.97;55.65;95972.50;5047561;28;20037;-60
2022/01/26 04:00:48;;;;;;;31.25;18.98;;;;;;;-5.79;54.56;95968.56;5046710;28;20448;-62
2022/01/26 04:03:13;;;;;;;37.05;18.23;;;;;;;-5.77;55.26;95967.78;5049025;28;20047;-60
2022/01/26 04:05:39;;;;;;;32.55;18.67;;;;;;;-5.63;54.50;95967.97;5050814;28;20036;-59
2022/01/26 04:08:12;;;;;;;33.45;17.63;;;;;;;-5.47;54.39;95964.00;5032599;28;20049;-60
2022/01/26 04:10:52;;;;;;;28.00;16.42;;;;;;;-5.93;54.39;95856.16;5051269;28;20029;-60
2022/01/26 04:13:17;;;;;;;32.58;17.77;;;;;;;-5.24;53.37;95944.22;5050599;28;20081;-60
2022/01/26 04:15:43;;;;;;;27.50;16.20;;;;;;;-5.22;53.41;95927.47;5050721;28;20048;-60
2022/01/26 04:18:13;;;;;;;24.50;14.18;;;;;;;-4.89;52.81;95955.53;5051116;28;20077;-59
2022/01/26 04:20:43;;;;;;;15.85;7.88;;;;;;;-4.77;51.29;95959.88;5051077;28;20021;-59
2022/01/26 04:23:17;;;;;;;22.30;12.90;;;;;;;-4.71;50.85;95957.44;5051304;28;20059;-60
2022/01/26 04:25:45;;;;;;;22.05;13.27;;;;;;;-4.76;50.95;95926.34;5050549;28;20040;-61
2022/01/26 04:28:17;;;;;;;26.05;13.02;;;;;;;-4.64;50.63;95928.97;5050995;28;20032;-60
2022/01/26 04:30:42;;;;;;;27.20;14.05;;;;;;;-4.39;50.98;95951.88;5051017;28;20032;-63
2022/01/26 04:33:08;;;;;;;18.02;11.20;;;;;;;-4.37;49.93;95935.97;5050645;28;20025;-59
2022/01/26 04:35:35;;;;;;;18.17;10.52;;;;;;;-4.30;49.81;95946.94;5050608;28;20025;-59
2022/01/26 04:40:36;;;;;;;22.40;11.18;;;;;;;-4.25;50.08;95942.78;5050909;28;20108;-59
2022/01/26 04:43:07;;;;;;;19.50;9.40;;;;;;;-4.38;49.78;95930.91;5051007;28;20178;-61
2022/01/26 04:45:32;;;;;;;24.60;13.10;;;;;;;-4.18;49.63;95946.22;5050749;28;20040;-59
2022/01/26 04:47:58;;;;;;;19.08;12.18;;;;;;;-4.19;49.57;95939.50;5050384;28;20040;-61
2022/01/26 04:50:23;;;;;;;18.13;12.70;;;;;;;-4.10;49.81;95944.59;5050445;28;20025;-63
2022/01/26 04:52:49;;;;;;;20.88;11.48;;;;;;;-4.15;49.61;95948.75;5032718;28;20037;-60
2022/01/26 04:55:14;;;;;;;15.13;8.73;;;;;;;-4.36;49.75;95912.50;5050403;28;20028;-59
2022/01/26 04:57:40;;;;;;;18.63;9.77;;;;;;;-4.44;49.39;95912.41;5050445;28;20375;-60
2022/01/26 05:00:08;;;;;;;20.92;12.30;;;;;;;-4.34;50.23;95940.22;5050491;28;20021;-61
2022/01/26 05:02:34;;;;;;;18.30;11.27;;;;;;;-4.25;50.04;95943.66;5050754;28;20023;-60
2022/01/26 05:05:00;;;;;;;28.17;13.60;;;;;;;-4.45;50.05;95913.22;5050717;28;20024;-61
2022/01/26 05:07:25;;;;;;;17.15;10.65;;;;;;;-4.43;49.39;95910.72;5050753;28;20028;-61
2022/01/26 05:09:51;;;;;;;19.50;10.88;;;;;;;-4.32;49.53;95909.16;5050376;28;20032;-60
2022/01/26 05:12:17;;;;;;;21.88;10.65;;;;;;;-4.10;49.73;95948.00;5048248;28;20048;-59
2022/01/26 05:14:45;;;;;;;13.68;7.75;;;;;;;-4.42;49.83;95894.81;5029457;28;20065;-60
2022/01/26 05:17:12;;;;;;;16.73;10.13;;;;;;;-4.14;49.01;95932.84;5047696;28;20060;-62
2022/01/26 05:19:38;;;;;;;17.10;10.00;;;;;;;-4.33;48.88;95920.09;5048941;28;20021;-61
2022/01/26 05:22:04;;;;;;;18.05;10.93;;;;;;;-4.17;49.62;95947.91;5050431;28;20384;-61
2022/01/26 05:24:29;;;;;;;18.23;10.85;;;;;;;-4.31;49.41;95910.84;5049581;28;20032;-61
2022/01/26 05:26:55;;;;;;;18.48;10.15;;;;;;;-4.09;49.74;95948.81;5050121;28;20040;-59
2022/01/26 05:29:20;;;;;;;20.77;10.30;;;;;;;-4.20;49.63;95922.69;5049970;28;20041;-61
2022/01/26 05:31:45;;;;;;;17.58;9.32;;;;;;;-4.74;48.55;95844.97;5050069;28;20036;-60
2022/01/26 05:34:11;;;;;;;17.33;10.63;;;;;;;-4.13;49.37;95944.56;5050288;28;20025;-60
2022/01/26 05:36:36;;;;;;;18.13;10.20;;;;;;;-4.09;49.26;95938.75;5049722;28;20029;-61
2022/01/26 05:39:03;;;;;;;18.70;10.63;;;;;;;-4.13;49.72;95937.00;5050067;28;20507;-60
2022/01/26 05:41:29;;;;;;;15.98;9.13;;;;;;;-4.03;49.42;95942.97;5049731;28;20427;-61
2022/01/26 05:43:54;;;;;;;18.52;9.70;;;;;;;-4.21;49.43;95923.50;5049607;28;20033;-59
2022/01/26 05:46:28;;;;;;;19.90;11.40;;;;;;;-4.33;49.52;95894.91;5049807;28;20069;-60
2022/01/26 05:48:55;;;;;;;21.50;11.38;;;;;;;-4.09;48.92;95908.53;5049107;28;20067;-59
2022/01/26 05:51:21;;;;;;;16.48;8.82;;;;;;;-3.94;49.84;95933.00;5049672;28;20791;-60
2022/01/26 05:53:47;;;;;;;17.17;9.52;;;;;;;-4.05;49.71;95917.78;5049530;28;20484;-60
2022/01/26 05:56:13;;;;;;;15.25;9.52;;;;;;;-4.15;49.78;95890.81;5049570;28;20033;-61
2022/01/26 05:58:38;;;;;;;19.42;11.82;;;;;;;-3.91;50.14;95923.78;5049315;28;20111;-61
2022/01/26 06:01:06;;;;;;;18.45;11.13;;;;;;;-3.92;49.81;95891.00;5049029;28;20048;-60
2022/01/26 06:03:32;;;;;;;24.67;11.82;;;;;;;-3.70;50.38;95934.88;5049585;28;20032;-60
2022/01/26 06:05:58;;;;;;;22.15;12.73;;;;;;;-3.77;50.35;95917.97;5049758;28;20036;-60
2022/01/26 06:08:25;;;;;;;21.15;11.88;;;;;;;-3.65;50.50;95942.47;5031564;28;20467;-62
2022/01/26 06:10:51;;;;;;;24.60;12.57;;;;;;;-3.59;50.27;95938.31;5049577;28;20612;-60
2022/01/26 06:13:18;;;;;;;22.50;12.05;;;;;;;-3.66;50.55;95928.16;5031263;28;20504;-61
2022/01/26 06:15:44;;;;;;;21.20;12.35;;;;;;;-3.66;51.14;95923.94;5049391;28;20399;-60
2022/01/26 06:18:10;;;;;;;20.92;12.65;;;;;;;-3.75;51.36;95906.25;5049633;28;20029;-62
2022/01/26 06:20:37;;;;;;;16.60;9.30;;;;;;;-3.75;51.30;95904.56;5049189;28;20056;-61
2022/01/26 06:23:03;;;;;;;24.27;12.95;;;;;;;-3.52;51.63;95929.09;5049177;28;20032;-59
2022/01/26 06:25:30;;;;;;;19.50;11.73;;;;;;;-3.34;51.26;95918.28;5048082;28;20120;-61
2022/01/26 06:27:58;;;;;;;23.15;12.85;;;;;;;-3.42;51.62;95909.81;5048629;28;20021;-59
2022/01/26 06:30:24;;;;;;;21.52;12.27;;;;;;;-3.35;51.92;95922.47;5049392;28;20124;-61
2022/01/26 06:32:50;;;;;;;20.13;11.70;;;;;;;-3.45;51.77;95913.16;5049310;28;20031;-60
2022/01/26 06:35:16;;;;;;;21.73;13.80;;;;;;;-3.70;51.79;95864.28;5048737;28;20044;-60
2022/01/26 06:37:43;;;;;;;21.27;13.45;;;;;;;-3.24;52.01;95940.19;5048635;28;20029;-60
2022/01/26 06:40:08;;;;;;;21.35;14.07;;;;;;;-3.24;52.14;95912.44;5049001;28;20061;-58
2022/01/26 06:42:48;;;;;;;19.48;10.93;;;;;;;-3.42;52.42;95893.00;5048595;28;20074;-60
2022/01/26 06:45:19;;;;;;;22.92;13.02;;;;;;;-3.24;52.55;95930.09;5048934;28;20033;-60
2022/01/26 06:50:16;;;;;;;25.48;12.25;;;;;;;-3.42;53.07;95902.25;5056996;28;20093;-61
2022/01/26 06:52:43;;;;;;;24.52;13.18;;;;;;;-3.46;54.21;95915.66;5049660;28;20033;-65
2022/01/26 06:55:10;;;;;;;25.10;14.23;;;;;;;-3.19;53.91;95940.22;5037113;28;20733;-61
2022/01/26 06:57:35;;;;;;;28.33;14.52;;;;;;;-3.33;56.57;95907.34;5032411;28;20122;-61
2022/01/26 07:00:01;;;;;;;24.65;13.65;;;;;;;-2.72;54.68;95946.28;5026998;28;20487;-69
2022/01/26 07:02:26;;;;;;;28.90;15.00;;;;;;;-2.95;53.35;95881.44;5034737;28;20033;-65
2022/01/26 07:04:51;;;;;;;26.70;13.32;;;;;;;-2.64;53.23;95935.41;5025416;28;20029;-63
2022/01/26 07:07:18;;;;;;;28.95;15.95;;;;;;;-2.76;53.75;95920.19;5026301;28;20041;-64
2022/01/26 07:09:44;;;;;;;23.02;13.70;;;;;;;-3.00;54.17;95880.56;5013366;28;20045;-66
2022/01/26 07:12:09;;;;;;;23.85;14.23;;;;;;;-2.64;54.67;95937.94;5027910;28;20025;-63
2022/01/26 07:22:46;;;;;;;25.35;14.55;;;;;;;-2.86;56.30;95926.91;5030581;28;20120;-63
2022/01/26 07:25:12;;;;;;;24.23;12.25;;;;;;;-3.39;56.48;95835.03;5044330;28;20124;-65
2022/01/26 07:27:37;;;;;;;15.55;10.57;;;;;;;-2.89;56.48;95929.41;5039004;28;20068;-62
2022/01/26 07:30:06;;;;;;;32.63;14.05;;;;;;;-2.95;56.24;95909.22;5029298;28;20565;-66
2022/01/26 07:32:31;;;;;;;22.10;12.93;;;;;;;-2.77;56.25;95936.22;5029217;28;20511;-63
2022/01/26 07:34:57;;;;;;;29.50;14.57;;;;;;;-2.71;56.35;95936.22;5038882;28;20135;-68
2022/01/26 07:37:24;;;;;;;17.60;10.82;;;;;;;-2.92;56.76;95936.97;5041650;28;20020;-65
2022/01/26 07:40:02;;;;;;;21.88;11.18;;;;;;;-2.93;56.21;95925.19;5036927;28;20090;-64
2022/01/26 07:42:28;;;;;;;22.77;9.15;;;;;;;-3.09;57.28;95910.81;5040252;28;20025;-63
2022/01/26 07:44:53;;;;;;;24.58;11.05;;;;;;;-2.96;57.40;95946.22;5038079;28;20045;-65
2022/01/26 07:47:19;;;;;;;14.63;9.02;;;;;;;-3.08;57.59;95930.16;5045823;28;20041;-66
2022/01/26 07:49:44;;;;;;;18.20;10.70;;;;;;;-3.19;58.11;95899.84;5054491;28;20037;-64
2022/01/26 07:52:10;;;;;;;24.10;12.35;;;;;;;-3.06;58.16;95918.41;5038086;28;20038;-64
2022/01/26 07:54:36;;;;;;;17.75;10.57;;;;;;;-3.05;58.78;95925.13;5048354;28;20087;-64
2022/01/26 07:57:01;;;;;;;20.60;11.77;;;;;;;-2.89;59.23;95939.50;5047016;28;20056;-64
2022/01/26 07:59:28;;;;;;;15.55;10.20;;;;;;;-3.15;59.96;95912.50;5065155;28;20021;-63
2022/01/26 08:01:53;;;;;;;21.30;11.32;;;;;;;-3.04;60.59;95920.09;5066603;28;20033;-65
2022/01/26 08:04:19;;;;;;;19.52;11.95;;;;;;;-2.82;60.66;95942.91;5061099;28;20051;-63
2022/01/26 08:06:44;;;;;;;22.27;12.30;;;;;;;-2.81;60.90;95939.53;5046144;28;20033;-65
2022/01/26 08:09:11;;;;;;;20.83;12.25;;;;;;;-2.70;60.40;95935.38;5047056;28;20021;-62
2022/01/26 08:11:36;;;;;;;23.15;12.02;;;;;;;-2.65;60.94;95933.72;5046868;28;20817;-65
2022/01/26 08:14:02;;;;;;;25.27;12.75;;;;;;;-2.64;60.84;95927.84;5044996;28;20024;-63
2022/01/26 08:16:28;;;;;;;18.92;9.70;;;;;;;-3.01;61.72;95889.00;5046643;28;20013;-64
2022/01/26 08:18:53;;;;;;;16.73;9.30;;;;;;;-2.84;61.91;95937.84;5046639;28;20040;-63
2022/01/26 08:21:19;;;;;;;23.42;8.90;;;;;;;-3.17;62.39;95888.06;5046551;28;20670;-63
2022/01/26 08:23:45;;;;;;;24.45;13.57;;;;;;;-2.81;62.13;95940.38;5045576;28;20565;-64
2022/01/26 08:26:11;;;;;;;20.63;11.43;;;;;;;-2.65;61.96;95930.34;5051003;28;20527;-64
2022/01/26 08:28:40;;;;;;;20.02;9.80;;;;;;;-2.71;61.73;95905.91;5047470;28;20094;-65
2022/01/26 08:31:06;;;;;;;20.30;12.35;;;;;;;-2.53;62.23;95940.47;5054111;28;20029;-64
2022/01/26 08:33:31;;;;;;;21.60;13.63;;;;;;;-2.50;61.93;95929.53;5052753;28;20099;-67
2022/01/26 08:35:57;;;;;;;25.00;13.05;;;;;;;-2.47;62.50;95932.91;5046338;28;20035;-66
2022/01/26 08:38:23;;;;;;;23.10;12.98;;;;;;;-2.67;61.54;95896.66;5056697;28;20503;-64
2022/01/26 08:40:49;;;;;;;26.88;11.73;;;;;;;-2.36;61.51;95940.53;5048692;28;20124;-64
2022/01/26 08:43:15;;;;;;;22.20;12.02;;;;;;;-2.63;61.33;95895.84;5054026;28;20037;-65
2022/01/26 08:45:41;;;;;;;21.60;13.18;;;;;;;-2.28;61.32;95948.09;5051587;28;20032;-66
2022/01/26 08:48:07;;;;;;;21.73;12.55;;;;;;;-2.31;61.66;95946.44;5045983;28;20049;-62
2022/01/26 08:50:33;;;;;;;22.98;13.13;;;;;;;-2.55;61.71;95901.75;5031173;28;20041;-67
2022/01/26 08:52:59;;;;;;;18.88;11.15;;;;;;;-2.14;61.04;95946.44;5048613;28;20031;-65
2022/01/26 08:55:24;;;;;;;21.92;12.85;;;;;;;-2.09;60.94;95944.78;5054355;28;20028;-67
2022/01/26 08:57:50;;;;;;;19.92;10.65;;;;;;;-2.08;60.76;95948.16;5059336;28;20027;-65
2022/01/26 09:00:17;;;;;;;20.88;12.60;;;;;;;-2.12;61.00;95946.44;5049691;28;20021;-65
2022/01/26 09:02:42;;;;;;;22.40;11.82;;;;;;;-2.00;60.95;95940.56;5049191;28;20033;-64
2022/01/26 09:05:08;;;;;;;18.13;10.73;;;;;;;-1.93;60.88;95943.09;5051185;28;20031;-66
2022/01/26 09:07:35;;;;;;;19.40;11.95;;;;;;;-1.87;61.00;95943.13;5040411;28;20108;-65
2022/01/26 09:10:02;;;;;;;21.63;12.50;;;;;;;-1.89;60.65;95895.91;5043310;28;20043;-64
2022/01/26 09:12:30;;;;;;;14.10;8.60;;;;;;;-2.16;60.92;95916.97;5040746;28;20101;-64
2022/01/26 09:14:56;;;;;;;13.80;8.75;;;;;;;-2.12;61.85;95918.66;5041950;28;20021;-64
2022/01/26 09:17:23;;;;;;;13.45;7.55;;;;;;;-2.07;62.51;95954.88;5046135;28;20468;-66
2022/01/26 09:19:49;;;;;;;16.95;9.40;;;;;;;-2.46;61.95;95879.03;5048522;28;20098;-63
2022/01/26 09:22:17;;;;;;;16.90;10.18;;;;;;;-1.81;62.16;95959.13;5048872;28;20032;-63
2022/01/26 09:24:44;;;;;;;20.83;12.20;;;;;;;-1.84;61.59;95922.03;5053687;28;20028;-66
2022/01/26 09:27:14;;;;;;;18.17;11.85;;;;;;;-1.67;61.01;95945.63;5049659;28;20087;-65
2022/01/26 09:29:42;;;;;;;16.75;9.38;;;;;;;-1.86;61.00;95900.97;5061968;28;20016;-62
2022/01/26 09:32:08;;;;;;;16.00;10.75;;;;;;;-1.61;61.02;95943.94;5055348;28;20119;-64
2022/01/26 09:34:37;;;;;;;18.33;11.32;;;;;;;-1.53;60.70;95939.72;5056247;28;20623;-64
2022/01/26 09:37:05;;;;;;;16.02;8.90;;;;;;;-1.89;61.09;95906.84;5050051;28;20032;-65
2022/01/26 09:39:30;;;;;;;17.35;8.65;;;;;;;-1.77;61.17;95917.81;5057047;28;20124;-66
2022/01/26 09:41:57;;;;;;;16.23;8.77;;;;;;;-1.74;61.55;95943.97;5058442;28;20430;-65
2022/01/26 09:44:22;;;;;;;14.73;8.82;;;;;;;-2.03;61.71;95878.22;5060668;28;20407;-64
2022/01/26 09:46:48;;;;;;;18.90;11.57;;;;;;;-1.67;61.33;95895.06;5053471;28;20048;-65
2022/01/26 09:49:18;;;;;;;16.48;9.20;;;;;;;-1.21;60.34;95924.50;5056049;28;20040;-64
2022/01/26 09:51:48;;;;;;;18.73;11.00;;;;;;;-1.44;59.99;95851.16;5054178;28;20803;-65
2022/01/26 09:54:16;;;;;;;22.52;12.95;;;;;;;-1.34;59.92;95842.69;5056040;28;20029;-64
2022/01/26 09:56:47;;;;;;;16.67;10.38;;;;;;;-0.78;59.10;95915.91;5047738;28;20032;-65
2022/01/26 09:59:13;;;;;;;18.30;11.13;;;;;;;-1.05;58.90;95856.06;5057823;28;20032;-64
2022/01/26 10:01:50;;;;;;;17.30;10.85;;;;;;;-0.96;59.77;95912.59;5054325;28;20276;-65
2022/01/26 10:04:29;;;;;;;19.42;11.35;;;;;;;-0.80;59.87;95920.13;5057896;28;20028;-64
2022/01/26 10:07:24;;;;;;;17.75;10.32;;;;;;;-0.87;59.91;95916.78;5052395;28;20484;-63
2022/01/26 10:10:28;;;;;;;21.10;11.25;;;;;;;-0.79;59.71;95906.59;5053526;28;20185;-64
2022/01/26 10:16:03;;;;;;;15.75;9.68;;;;;;;-0.96;60.85;95912.59;5024775;28;20132;-65
2022/01/26 10:18:30;;;;;;;15.68;9.23;;;;;;;-0.98;61.24;95914.28;5046133;28;20289;-63
2022/01/26 10:20:57;;;;;;;15.40;8.85;;;;;;;-1.42;61.27;95819.09;5046860;28;20108;-65
2022/01/26 10:23:26;;;;;;;18.42;10.75;;;;;;;-1.04;60.61;95862.84;5047748;28;20428;-65
2022/01/26 10:26:02;;;;;;;14.32;9.07;;;;;;;-0.98;61.09;95890.66;5054589;28;20041;-65
2022/01/26 10:28:44;;;;;;;16.48;9.65;;;;;;;-0.84;60.86;95896.50;5048827;28;20510;-67
2022/01/26 10:31:21;;;;;;;20.58;12.65;;;;;;;-0.70;61.20;95891.38;5056494;28;20135;-63
2022/01/26 10:34:09;;;;;;;20.55;12.73;;;;;;;-0.42;60.32;95891.22;5061575;28;20061;-68
2022/01/26 10:36:37;;;;;;;17.05;9.48;;;;;;;-0.68;61.27;95888.84;5048987;28;20387;-64
2022/01/26 10:39:06;;;;;;;16.52;7.97;;;;;;;-0.83;61.73;95900.72;5047839;28;20052;-67
2022/01/26 10:41:33;;;;;;;17.88;9.52;;;;;;;-1.08;62.92;95894.94;5050493;28;20037;-63
2022/01/26 10:44:01;;;;;;;18.85;10.45;;;;;;;-0.96;63.58;95894.84;5062173;28;20601;-63
2022/01/26 10:46:34;;;;;;;19.88;10.38;;;;;;;-0.84;63.47;95888.06;5066135;28;20093;-63
2022/01/26 10:49:16;;;;;;;14.05;8.27;;;;;;;-1.19;63.24;95851.09;5066716;28;20082;-65
2022/01/26 10:54:38;;;;;;;19.58;10.95;;;;;;;-0.99;63.61;95889.81;5046681;28;20092;-66
2022/01/26 10:57:09;;;;;;;14.30;7.38;;;;;;;-1.03;64.49;95872.97;5046325;28;20120;-66
2022/01/26 10:59:40;;;;;;;15.23;9.10;;;;;;;-1.09;64.82;95877.22;5047160;28;20523;-66
2022/01/26 11:02:07;;;;;;;12.68;7.97;;;;;;;-1.28;64.64;95856.16;5046632;28;20097;-64
2022/01/26 11:04:36;;;;;;;12.75;6.97;;;;;;;-1.18;65.68;95888.19;5048004;28;20035;-64
2022/01/26 11:07:04;;;;;;;16.42;10.00;;;;;;;-1.44;66.03;95848.63;5049690;28;20040;-65
2022/01/26 11:09:33;;;;;;;16.38;9.60;;;;;;;-1.12;65.10;95863.69;5040752;28;20022;-64
2022/01/26 11:12:10;;;;;;;15.10;10.27;;;;;;;-1.58;65.40;95793.00;5043713;28;20124;-65
2022/01/26 11:14:47;;;;;;;15.68;8.60;;;;;;;-1.01;65.16;95881.38;5021993;28;20795;-63
2022/01/26 11:17:37;;;;;;;17.27;11.40;;;;;;;-0.81;64.69;95875.38;5030218;28;20164;-64
2022/01/26 11:20:34;;;;;;;14.98;9.82;;;;;;;-0.93;64.69;95861.09;5040902;28;20120;-64
2022/01/26 11:23:03;;;;;;;19.30;10.90;;;;;;;-0.68;64.64;95874.47;5041488;28;20160;-64
2022/01/26 11:25:44;;;;;;;13.48;8.20;;;;;;;-0.68;64.27;95853.38;5022197;28;20466;-64
2022/01/26 11:28:25;;;;;;;13.65;9.63;;;;;;;-0.92;64.42;95852.63;5043566;28;20080;-66
2022/01/26 11:30:52;;;;;;;16.42;9.50;;;;;;;-0.61;63.76;95866.00;5046577;28;20071;-65
2022/01/26 11:33:21;;;;;;;12.70;7.97;;;;;;;-0.89;64.69;95842.50;5045689;28;20365;-65
2022/01/26 11:35:50;;;;;;;14.63;9.63;;;;;;;-0.82;64.42;95850.91;5045584;28;20523;-67
2022/01/26 11:47:21;;;;;;;19.17;10.75;;;;;;;-1.27;64.28;95756.63;4983509;28;20097;-66
2022/01/26 11:49:47;;;;;;;13.35;8.20;;;;;;;-0.85;65.15;95843.31;4987414;28;20034;-65
2022/01/26 11:52:21;;;;;;;11.25;7.43;;;;;;;-1.00;65.78;95842.56;4989633;28;20034;-63
2022/01/26 11:54:53;;;;;;;13.75;8.60;;;;;;;-0.98;65.60;95845.94;4990583;28;20035;-65
2022/01/26 11:57:22;;;;;;;13.38;7.82;;;;;;;-0.88;66.43;95850.97;4984722;28;20085;-65
2022/01/26 12:00:04;;;;;;;13.57;8.63;;;;;;;-0.90;65.75;95830.72;4996136;28;20049;-65
2022/01/26 12:05:10;;;;;;;19.33;12.18;;;;;;;-0.83;66.70;95845.00;4985529;28;19918;-63
2022/01/26 12:07:49;;;;;;;17.70;11.35;;;;;;;-0.75;66.54;95860.16;4987083;28;20035;-68
2022/01/26 12:10:23;;;;;;;16.27;10.70;;;;;;;-0.72;67.38;95854.22;4994971;28;20096;-67
2022/01/26 12:13:04;;;;;;;15.40;10.05;;;;;;;-0.72;67.10;95861.81;4988900;28;20030;-65
2022/01/26 12:15:41;;;;;;;18.80;12.02;;;;;;;-0.77;66.85;95850.03;4990718;28;20026;-66
2022/01/26 12:45:27;;;;;;;18.52;11.20;;;;;;;-1.02;68.06;95813.88;4968657;28;20039;-67
2022/01/26 12:47:56;;;;;;;19.38;11.07;;;;;;;-0.68;68.15;95841.53;4969183;28;20058;-63
2022/01/26 12:50:24;;;;;;;16.63;10.05;;;;;;;-0.58;66.82;95838.09;4963090;28;20042;-65
2022/01/26 12:52:53;;;;;;;22.35;13.25;;;;;;;-0.34;66.56;95837.94;4968645;28;20046;-64
2022/01/26 12:55:32;;;;;;;15.05;9.50;;;;;;;-0.70;67.08;95839.88;4966335;28;20081;-63
2022/01/26 12:57:57;;;;;;;19.95;11.45;;;;;;;-0.57;66.62;95834.72;4968247;28;20161;-65
2022/01/26 13:00:25;;;;;;;19.00;12.38;;;;;;;-0.39;66.09;95838.00;4966798;28;20038;-62
2022/01/26 13:02:52;;;;;;;10.15;7.25;;;;;;;-0.87;66.44;95785.13;4967315;28;20046;-66
2022/01/26 13:05:26;;;;;;;17.58;9.70;;;;;;;-0.66;66.35;95844.91;4965924;28;20521;-64
2022/01/26 13:08:00;;;;;;;13.82;8.07;;;;;;;-0.74;66.43;95833.97;4968160;28;20038;-62
2022/01/26 13:10:25;;;;;;;16.92;11.57;;;;;;;-0.67;67.20;95834.78;4952674;28;20038;-66
2022/01/26 13:12:51;;;;;;;12.23;9.10;;;;;;;-0.78;66.98;95825.56;4968104;28;20113;-64
2022/01/26 13:15:24;;;;;;;15.32;10.85;;;;;;;-0.97;67.27;95768.28;4959751;28;20527;-65
2022/01/26 13:17:59;;;;;;;11.15;8.32;;;;;;;-0.70;66.98;95820.47;4963995;28;20039;-66
2022/01/26 13:28:16;;;;;;;17.23;12.05;;;;;;;-0.64;66.66;95800.16;5047750;28;20025;-64
2022/01/26 13:36:12;;;;;;;17.33;9.95;;;;;;;-0.58;67.03;95815.28;4984991;28;20615;-66
2022/01/26 13:59:37;;;;;;;14.70;9.77;;;;;;;-0.49;66.69;95823.69;4970047;28;20580;-64
2022/01/26 14:02:02;;;;;;;14.63;10.50;;;;;;;-0.81;67.45;95800.25;4973911;28;20073;-63
2022/01/26 14:04:28;;;;;;;14.30;9.63;;;;;;;-0.72;67.65;95826.38;4973633;28;20035;-62
2022/01/26 14:06:53;;;;;;;12.95;9.52;;;;;;;-0.77;68.03;95823.84;4976418;28;20050;-63
2022/01/26 14:09:19;;;;;;;15.85;11.57;;;;;;;-0.63;67.58;95837.28;4967276;28;20052;-64
2022/01/26 14:11:47;;;;;;;14.68;9.07;;;;;;;-0.63;68.02;95855.03;4967716;28;20026;-62
2022/01/26 14:14:23;;;;;;;18.63;11.15;;;;;;;-1.00;68.19;95794.47;5064087;28;20033;-66
2022/01/26 14:16:57;;;;;;;14.18;9.85;;;;;;;-0.91;68.26;95829.00;5067672;28;20025;-66
2022/01/26 14:19:37;;;;;;;10.20;6.93;;;;;;;-1.28;67.99;95749.88;5061211;28;20039;-64
2022/01/26 14:27:17;;;;;;;;;;;;;;;-0.40;66.75;95859.94;5048964;28;20102;-65
2022/01/26 14:30:16;;;;;;;13.07;9.00;;;;;;;-0.66;67.81;95828.88;5053965;28;19916;-65
2022/01/26 14:35:22;;;;;;;16.35;9.07;;;;;;;-0.49;66.94;95859.16;5057091;28;20708;-65
2022/01/26 15:29:56;;;;;;;16.40;10.32;;;;;;;-1.00;69.40;95867.88;5051892;28;20024;-66